Rechercher aéroport 
image banner adimage banner ad
image banner ad

DAOR - Bechar / Boudghene Ben Ali Lotfi

Situé à , Algeria

ICAO - DAOR, IATA - CBH

Données fournies par Airmate  

Information générale

Coordonnées: N31°39'2" W2°15'11"
Élévation : 2657 feet MSL.
 
Voir autres Aéroports à Béchar Province

Données opérationnelles

Accessible au public
Heure actuelle UTC:
Heure actuelle locale:
Météo
METAR: DAOR 250100Z 10002KT 9999 SCT040 28/03 Q1021
TAF: TAF DAOR 242300Z 2500/2509 36015KT 8000 SCT033
Voir NOTAMs / SUP AIP / TFR affectant cet aéroport [VIEW]
Fréquences de communication: [VIEW]

Pistes:

Identifiant RWYQFULongueur (ft)Largeur (ft)SurfaceLDA (ft)
0660°12245148ASP
24240°11883148
18180°9843148
36360°9843148

Coordonnées de l'aéroport

Adresse: Algeria

Vue satellite de DAOR